X  Schlie├čen METAR Luftfahrt Wetterdaten     ETNS Schleswig Air Base
Temperatur
18°C Temperatur
15°C Taupunkt
83% Feuchtigkeit



Wind
19 KM/H
12 MPS
5 M/S
10 KTS



220°
SW
Aktuelle Wetterlage

Unknown Unknown
Luftdruck 1004.92 (hPa) - 29.68 (inHg)
Sichtweite 4.3 (Meile) - 7 (Km)
Flughafen Schleswig-Jagel
Flughafen Code ETNS

Position : Schleswig Air Base
Entfernung: 40 (Km)

Metar:
ETNS 011220Z AUTO 22010KT 7000 // ////// 18/15 Q1005 ///

Zeit: 01-08-2021 13:20 BST